Time;durP1;ratioP1;P1;durP2;ratioP2;P2;SDS_P1;SDS_P2;PMS_P1;PMS_P2;Temp;Humidity;BMP_temperature;BMP_pressure;BME280_temperature;BME280_humidity;BME280_pressure;Samples;Min_cycle;Max_cycle;Signal;HPM_P1;HPM_P2
2023/09/28 00:02:51;;;;;;;13.55;8.07;;;13.70;99.90;;;;;;5076635;28;20108;-67
2023/09/28 00:05:19;;;;;;;17.30;9.23;;;13.70;99.90;;;;;;5076334;28;20110;-67
2023/09/28 00:07:46;;;;;;;17.67;8.82;;;13.70;99.90;;;;;;5076332;28;20020;-67
2023/09/28 00:10:15;;;;;;;14.40;9.35;;;13.70;99.90;;;;;;5076355;28;20024;-67
2023/09/28 00:12:45;;;;;;;15.80;10.27;;;13.70;99.90;;;;;;5076316;28;20032;-67
2023/09/28 00:15:12;;;;;;;11.45;8.63;;;13.60;99.90;;;;;;5058395;28;20127;-67
2023/09/28 00:17:38;;;;;;;16.48;9.30;;;13.60;99.90;;;;;;5058251;28;20391;-67
2023/09/28 00:20:18;;;;;;;14.75;8.80;;;13.60;99.90;;;;;;5076344;28;20028;-67
2023/09/28 00:22:51;;;;;;;12.80;8.35;;;13.60;99.90;;;;;;5076188;28;20096;-67
2023/09/28 00:25:19;;;;;;;15.43;9.07;;;13.60;99.90;;;;;;5075919;28;20035;-67
2023/09/28 00:27:47;;;;;;;15.77;8.80;;;13.60;99.90;;;;;;5076333;28;20103;-67
2023/09/28 00:30:22;;;;;;;14.77;9.20;;;13.50;99.90;;;;;;5075951;28;20032;-67
2023/09/28 00:32:53;;;;;;;16.10;9.15;;;13.50;99.90;;;;;;5058432;28;20024;-67
2023/09/28 00:35:19;;;;;;;14.50;8.98;;;13.50;99.90;;;;;;5076002;28;20074;-67
2023/09/28 00:37:46;;;;;;;12.70;8.90;;;13.50;99.90;;;;;;5075554;28;20366;-67
2023/09/28 00:40:18;;;;;;;13.07;9.43;;;13.50;99.90;;;;;;5076074;28;20372;-67
2023/09/28 00:42:45;;;;;;;13.45;8.07;;;13.40;99.90;;;;;;5075977;28;20074;-67
2023/09/28 00:45:11;;;;;;;15.70;8.35;;;13.40;99.90;;;;;;5057699;28;20380;-67
2023/09/28 00:47:39;;;;;;;14.77;8.60;;;13.40;99.90;;;;;;5075336;28;20031;-67
2023/09/28 00:50:14;;;;;;;12.38;8.52;;;13.30;99.90;;;;;;5057653;28;20032;-67
2023/09/28 00:52:46;;;;;;;13.82;7.95;;;13.30;99.90;;;;;;5057569;28;20029;-67
2023/09/28 00:55:14;;;;;;;11.00;7.63;;;13.30;99.90;;;;;;5075272;28;20419;-67
2023/09/28 00:57:42;;;;;;;11.70;7.85;;;13.30;99.90;;;;;;5075230;28;20023;-67
2023/09/28 01:00:26;;;;;;;12.50;8.35;;;13.30;99.90;;;;;;5075093;28;20425;-67
2023/09/28 01:02:53;;;;;;;15.57;9.05;;;13.20;99.90;;;;;;5057217;28;20115;-67
2023/09/28 01:05:26;;;;;;;16.92;8.15;;;13.20;99.90;;;;;;5075351;28;20028;-67
2023/09/28 01:07:52;;;;;;;11.82;8.00;;;13.20;99.90;;;;;;5057310;28;20032;-67
2023/09/28 01:10:24;;;;;;;16.48;8.48;;;13.30;99.90;;;;;;5057531;28;20495;-66
2023/09/28 01:12:51;;;;;;;11.05;8.45;;;13.20;99.90;;;;;;5075368;28;20456;-67
2023/09/28 01:15:16;;;;;;;16.95;8.73;;;13.30;99.90;;;;;;5075417;28;20036;-67
2023/09/28 01:17:43;;;;;;;18.02;8.93;;;13.30;99.90;;;;;;5057364;28;20111;-67
2023/09/28 01:20:25;;;;;;;13.57;8.50;;;13.40;99.90;;;;;;5057760;28;20024;-66
2023/09/28 01:22:51;;;;;;;13.57;8.07;;;13.50;99.90;;;;;;5057401;28;20028;-67
2023/09/28 01:25:18;;;;;;;15.43;9.00;;;13.60;99.90;;;;;;5060291;28;20025;-67
2023/09/28 01:27:47;;;;;;;13.30;8.20;;;13.60;99.90;;;;;;5077949;28;20060;-67
2023/09/28 01:30:14;;;;;;;18.17;8.73;;;13.60;99.90;;;;;;5076871;28;20048;-67
2023/09/28 01:32:40;;;;;;;15.13;8.82;;;13.50;99.90;;;;;;5060970;28;20036;-67
2023/09/28 01:35:06;;;;;;;14.50;8.52;;;13.50;99.90;;;;;;5075257;28;20037;-67
2023/09/28 01:38:05;;;;;;;13.73;7.88;;;13.40;99.90;;;;;;5075369;28;20104;-67
2023/09/28 01:40:30;;;;;;;10.68;8.48;;;13.40;99.90;;;;;;5032316;28;20041;-67
2023/09/28 01:42:56;;;;;;;19.98;8.52;;;13.30;99.90;;;;;;5074885;28;20453;-67
2023/09/28 01:45:22;;;;;;;12.20;8.02;;;13.30;99.90;;;;;;5075000;28;20036;-67
2023/09/28 01:47:48;;;;;;;13.23;8.70;;;13.20;99.90;;;;;;5056880;28;20029;-67
2023/09/28 01:50:13;;;;;;;12.18;8.07;;;13.10;99.90;;;;;;5074462;28;20025;-67
2023/09/28 01:52:39;;;;;;;11.50;8.80;;;13.10;99.90;;;;;;5056609;28;20025;-67
2023/09/28 01:55:05;;;;;;;20.17;8.50;;;13.00;99.90;;;;;;5074462;28;20483;-67
2023/09/28 01:57:33;;;;;;;13.07;8.63;;;12.90;99.90;;;;;;5056516;28;20060;-67
2023/09/28 02:00:00;;;;;;;14.80;8.70;;;12.90;99.90;;;;;;5056547;28;20040;-66
2023/09/28 02:02:26;;;;;;;18.33;9.27;;;12.90;99.90;;;;;;5074754;28;20031;-67
2023/09/28 02:04:51;;;;;;;21.55;9.20;;;12.80;99.90;;;;;;5058440;28;20029;-67
2023/09/28 02:07:18;;;;;;;12.15;8.77;;;12.80;99.90;;;;;;5077811;28;20051;-67
2023/09/28 02:09:44;;;;;;;16.23;8.85;;;12.80;99.90;;;;;;5076503;28;20044;-67
2023/09/28 02:12:10;;;;;;;16.42;9.52;;;12.80;99.90;;;;;;5057451;28;20384;-67
2023/09/28 02:14:36;;;;;;;14.98;9.38;;;12.70;99.90;;;;;;5075367;28;20437;-67
2023/09/28 02:17:02;;;;;;;14.55;9.05;;;12.70;99.90;;;;;;5075545;28;20034;-67
2023/09/28 02:19:28;;;;;;;15.43;8.73;;;12.60;99.90;;;;;;5075285;28;20471;-67
2023/09/28 02:21:53;;;;;;;16.60;9.20;;;12.60;99.90;;;;;;5074365;28;20040;-67
2023/09/28 02:24:19;;;;;;;10.77;8.50;;;12.60;99.90;;;;;;5074636;28;20028;-67
2023/09/28 02:26:44;;;;;;;17.15;9.38;;;12.60;99.90;;;;;;5073973;28;20357;-67
2023/09/28 02:29:12;;;;;;;15.60;8.70;;;12.70;99.90;;;;;;5056039;28;20119;-67
2023/09/28 02:31:43;;;;;;;17.45;8.95;;;12.70;99.90;;;;;;5074200;28;20380;-67
2023/09/28 02:34:09;;;;;;;14.10;9.10;;;12.70;99.90;;;;;;5073973;28;20099;-67
2023/09/28 02:36:35;;;;;;;17.33;9.07;;;12.70;99.90;;;;;;5074428;28;20084;-69
2023/09/28 02:39:12;;;;;;;12.48;9.20;;;12.70;99.90;;;;;;5074572;28;20074;-67
2023/09/28 02:41:38;;;;;;;16.27;9.52;;;12.70;99.90;;;;;;5074475;28;20017;-67
2023/09/28 02:44:04;;;;;;;13.38;8.40;;;12.70;99.90;;;;;;5074371;28;20028;-67
2023/09/28 02:46:29;;;;;;;14.45;9.98;;;12.70;99.90;;;;;;5074147;28;20388;-67
2023/09/28 02:48:56;;;;;;;11.10;8.40;;;12.70;99.90;;;;;;5074119;28;20392;-67
2023/09/28 02:51:22;;;;;;;13.32;10.00;;;12.60;99.90;;;;;;5073766;28;20032;-67
2023/09/28 02:53:48;;;;;;;15.32;9.40;;;12.70;99.90;;;;;;5055876;28;20020;-67
2023/09/28 02:56:14;;;;;;;18.17;10.00;;;12.70;99.90;;;;;;5055727;28;20032;-67
2023/09/28 02:58:39;;;;;;;14.63;10.00;;;12.60;99.90;;;;;;5073845;28;20037;-67
2023/09/28 03:01:05;;;;;;;14.00;9.38;;;12.60;99.90;;;;;;5073770;28;20043;-67
2023/09/28 03:03:31;;;;;;;18.08;9.73;;;12.60;99.90;;;;;;5055637;28;20033;-67
2023/09/28 03:05:58;;;;;;;13.82;9.43;;;12.50;99.90;;;;;;5055418;28;20028;-67
2023/09/28 03:08:23;;;;;;;17.25;9.45;;;12.60;99.90;;;;;;5056075;28;20130;-67
2023/09/28 03:10:50;;;;;;;17.63;9.95;;;12.60;99.90;;;;;;5073469;28;20519;-67
2023/09/28 03:13:18;;;;;;;16.67;9.55;;;12.60;99.90;;;;;;5055997;28;20081;-67
2023/09/28 03:15:44;;;;;;;22.85;9.98;;;12.60;99.90;;;;;;5075479;28;20028;-67
2023/09/28 03:18:13;;;;;;;16.15;9.88;;;12.50;99.90;;;;;;5077211;28;20103;-66
2023/09/28 03:20:44;;;;;;;14.18;9.68;;;12.50;99.90;;;;;;5059499;28;20169;-66
2023/09/28 03:23:11;;;;;;;17.67;9.70;;;12.50;99.90;;;;;;5059422;28;20527;-67
2023/09/28 03:25:37;;;;;;;14.30;9.95;;;12.50;99.90;;;;;;5076913;28;20032;-67
2023/09/28 03:28:03;;;;;;;14.65;10.02;;;12.60;99.90;;;;;;5077370;28;20047;-67
2023/09/28 03:30:30;;;;;;;18.08;9.77;;;12.60;99.90;;;;;;5059440;28;20020;-67
2023/09/28 03:32:56;;;;;;;17.48;9.85;;;12.60;99.90;;;;;;5059240;28;20029;-67
2023/09/28 03:35:22;;;;;;;16.67;10.02;;;12.70;99.90;;;;;;5076878;28;20052;-67
2023/09/28 03:37:49;;;;;;;17.00;9.52;;;12.60;99.90;;;;;;5077096;28;20029;-67
2023/09/28 03:40:16;;;;;;;15.07;9.65;;;12.60;99.90;;;;;;5059171;28;20024;-67
2023/09/28 03:42:43;;;;;;;15.23;9.85;;;12.70;99.90;;;;;;5077763;28;20024;-67
2023/09/28 03:45:10;;;;;;;16.70;9.20;;;12.70;99.90;;;;;;5076825;28;20025;-67
2023/09/28 03:47:40;;;;;;;16.67;10.45;;;12.70;99.90;;;;;;5058902;28;20028;-67
2023/09/28 03:50:07;;;;;;;18.73;9.65;;;12.70;99.90;;;;;;5076943;28;20020;-67
2023/09/28 03:52:37;;;;;;;15.43;9.05;;;12.70;99.90;;;;;;5077004;28;20028;-67
2023/09/28 03:55:04;;;;;;;12.20;9.63;;;12.80;99.90;;;;;;5076796;28;20023;-67
2023/09/28 03:57:30;;;;;;;16.63;11.13;;;12.80;99.90;;;;;;5058784;28;20483;-67
2023/09/28 03:59:56;;;;;;;19.40;9.32;;;12.80;99.90;;;;;;5058580;28;20021;-67
2023/09/28 04:02:27;;;;;;;14.95;9.65;;;12.80;99.90;;;;;;5076594;28;20024;-67
2023/09/28 04:04:52;;;;;;;15.77;9.57;;;12.70;99.90;;;;;;5077035;28;20056;-67
2023/09/28 04:07:18;;;;;;;12.10;9.95;;;12.70;99.90;;;;;;5076406;28;20138;-67
2023/09/28 04:09:44;;;;;;;13.98;9.63;;;12.60;99.90;;;;;;5076283;28;20021;-67
2023/09/28 04:12:09;;;;;;;13.68;10.32;;;12.70;99.90;;;;;;5076190;28;20032;-67
2023/09/28 04:14:35;;;;;;;14.00;10.45;;;12.60;99.90;;;;;;5076496;28;20033;-67
2023/09/28 04:17:01;;;;;;;15.57;9.60;;;12.60;99.90;;;;;;5058833;28;20028;-67
2023/09/28 04:19:26;;;;;;;16.90;10.10;;;12.50;99.90;;;;;;5076527;28;20027;-67
2023/09/28 04:21:52;;;;;;;13.52;9.93;;;12.50;99.90;;;;;;5058747;28;20028;-67
2023/09/28 04:24:18;;;;;;;18.63;10.82;;;12.40;99.90;;;;;;5058270;28;20483;-67
2023/09/28 04:26:43;;;;;;;13.43;10.35;;;12.40;99.90;;;;;;5075536;28;20039;-67
2023/09/28 04:29:09;;;;;;;19.48;9.98;;;12.30;99.90;;;;;;5076278;28;20065;-66
2023/09/28 04:31:34;;;;;;;20.05;10.13;;;12.30;99.90;;;;;;5058548;28;20032;-66
2023/09/28 04:34:00;;;;;;;15.20;10.40;;;12.30;99.90;;;;;;5076121;28;20361;-67
2023/09/28 04:36:26;;;;;;;16.15;10.60;;;12.20;99.90;;;;;;5085927;28;20048;-67
2023/09/28 04:38:52;;;;;;;15.50;9.93;;;12.20;99.90;;;;;;5095270;28;20027;-66
2023/09/28 04:41:18;;;;;;;19.67;10.63;;;12.20;99.90;;;;;;5094934;28;20031;-66
2023/09/28 04:43:43;;;;;;;16.08;11.15;;;12.20;99.90;;;;;;5094866;28;20028;-66
2023/09/28 04:46:09;;;;;;;15.35;10.65;;;12.20;99.90;;;;;;5095914;28;20032;-65
2023/09/28 04:48:35;;;;;;;14.48;10.48;;;12.20;99.90;;;;;;5095678;28;20024;-66
2023/09/28 04:51:00;;;;;;;17.08;11.73;;;12.10;99.90;;;;;;5096106;28;20024;-66
2023/09/28 04:53:26;;;;;;;17.45;10.98;;;;;;;;;;5094854;28;20379;-66
2023/09/28 04:55:53;;;;;;;16.45;11.32;;;;;;;;;;5096050;28;20372;-66
2023/09/28 04:58:18;;;;;;;21.10;11.63;;;12.10;99.90;;;;;;5094771;28;20110;-77
2023/09/28 05:00:44;;;;;;;15.02;11.30;;;12.10;99.90;;;;;;5094684;28;20063;-65
2023/09/28 05:03:11;;;;;;;15.73;10.93;;;12.20;99.90;;;;;;5094495;28;20028;-65
2023/09/28 05:05:37;;;;;;;18.95;11.60;;;12.20;99.90;;;;;;5095929;28;20060;-66
2023/09/28 05:08:02;;;;;;;23.55;12.52;;;12.20;99.90;;;;;;5095167;28;20075;-66
2023/09/28 05:10:28;;;;;;;22.00;10.77;;;12.20;99.90;;;;;;5094042;28;20427;-66
2023/09/28 05:12:54;;;;;;;17.58;11.15;;;12.30;99.90;;;;;;5094155;28;20415;-66
2023/09/28 05:15:20;;;;;;;22.55;12.23;;;12.30;99.90;;;;;;5095454;28;20025;-66
2023/09/28 05:17:45;;;;;;;17.40;11.30;;;12.40;99.90;;;;;;5094509;28;20233;-66
2023/09/28 05:20:11;;;;;;;17.25;11.35;;;12.40;99.90;;;;;;5095311;28;20121;-66
2023/09/28 05:22:37;;;;;;;22.98;11.70;;;12.40;99.90;;;;;;5093942;28;20111;-66
2023/09/28 05:25:05;;;;;;;18.90;11.70;;;12.40;99.90;;;;;;5094914;28;20032;-66
2023/09/28 05:27:30;;;;;;;25.77;12.18;;;12.50;99.90;;;;;;5095264;28;20031;-66
2023/09/28 05:29:56;;;;;;;17.65;11.38;;;12.50;99.90;;;;;;5094710;28;20028;-66
2023/09/28 05:32:22;;;;;;;15.88;11.27;;;12.50;99.90;;;;;;5093792;28;20031;-69
2023/09/28 05:34:48;;;;;;;20.65;12.23;;;12.60;99.90;;;;;;5092925;28;20056;-66
2023/09/28 05:37:14;;;;;;;16.20;11.23;;;12.60;99.90;;;;;;5056427;28;20396;-65
2023/09/28 05:39:39;;;;;;;18.33;11.55;;;12.60;99.90;;;;;;5073725;28;20036;-66
2023/09/28 05:42:06;;;;;;;19.90;11.38;;;12.70;99.90;;;;;;5074675;28;20029;-66
2023/09/28 05:44:32;;;;;;;14.35;11.00;;;12.70;99.90;;;;;;5074676;28;20024;-66
2023/09/28 05:46:57;;;;;;;23.60;11.57;;;12.70;99.90;;;;;;5074650;28;20024;-66
2023/09/28 05:49:23;;;;;;;17.13;11.00;;;12.80;99.90;;;;;;5074473;28;20480;-66
2023/09/28 05:51:49;;;;;;;17.85;10.82;;;12.90;99.90;;;;;;5056572;28;20024;-66
2023/09/28 05:54:15;;;;;;;13.77;10.40;;;13.00;99.90;;;;;;5056455;28;20372;-66
2023/09/28 05:56:40;;;;;;;17.60;10.85;;;13.10;99.90;;;;;;5074117;28;20025;-66
2023/09/28 05:59:07;;;;;;;24.90;11.35;;;13.10;99.90;;;;;;5074202;28;20024;-66
2023/09/28 06:01:32;;;;;;;17.23;10.80;;;13.20;99.90;;;;;;5056513;28;20025;-66
2023/09/28 06:03:58;;;;;;;13.50;10.18;;;13.40;99.90;;;;;;5056368;28;20032;-66
2023/09/28 06:06:24;;;;;;;14.88;10.32;;;13.60;99.90;;;;;;5073951;28;20483;-66
2023/09/28 06:08:52;;;;;;;21.98;10.27;;;14.00;99.90;;;;;;5073754;28;20036;-66
2023/09/28 06:11:19;;;;;;;23.52;10.23;;;14.40;99.90;;;;;;5056861;28;20376;-66
2023/09/28 06:13:45;;;;;;;17.95;9.57;;;14.80;99.90;;;;;;5057094;28;20493;-66
2023/09/28 06:16:13;;;;;;;16.02;9.32;;;15.10;99.90;;;;;;5057210;28;20035;-66
2023/09/28 06:18:40;;;;;;;15.77;9.73;;;15.30;99.90;;;;;;5074700;28;20052;-66
2023/09/28 06:21:06;;;;;;;16.27;9.02;;;15.50;99.90;;;;;;5055906;28;20078;-66
2023/09/28 06:23:33;;;;;;;17.75;9.05;;;15.70;99.90;;;;;;5074120;28;20027;-66
2023/09/28 06:25:59;;;;;;;26.10;9.25;;;15.80;99.90;;;;;;5058229;28;20038;-66
2023/09/28 06:28:24;;;;;;;23.25;9.85;;;15.90;99.90;;;;;;5077450;28;20103;-66
2023/09/28 06:30:53;;;;;;;13.00;9.40;;;16.00;99.90;;;;;;5076297;28;20029;-66
2023/09/28 06:33:19;;;;;;;18.40;9.38;;;16.10;99.90;;;;;;5058011;28;20029;-66
2023/09/28 06:35:45;;;;;;;19.77;9.55;;;16.20;99.90;;;;;;5074275;28;20052;-66
2023/09/28 06:38:11;;;;;;;12.48;8.93;;;16.20;99.90;;;;;;5055747;28;20028;-66
2023/09/28 06:40:39;;;;;;;19.48;9.25;;;16.40;99.90;;;;;;5055675;28;20396;-66
2023/09/28 06:43:04;;;;;;;18.90;9.45;;;16.50;99.90;;;;;;5055859;28;20435;-66
2023/09/28 06:45:30;;;;;;;20.23;9.30;;;16.60;99.90;;;;;;5073625;28;20067;-66
2023/09/28 06:47:56;;;;;;;18.92;9.52;;;16.80;99.90;;;;;;5073910;28;20056;-66
2023/09/28 06:50:22;;;;;;;22.10;8.77;;;16.90;99.90;;;;;;5077018;28;20024;-66
2023/09/28 06:52:47;;;;;;;23.05;8.82;;;17.00;99.90;;;;;;5062323;28;20065;-66
2023/09/28 06:55:13;;;;;;;18.45;8.75;;;17.10;99.90;;;;;;5080264;28;20032;-66
2023/09/28 06:57:39;;;;;;;11.15;7.90;;;17.30;99.90;;;;;;5080514;28;20024;-66
2023/09/28 07:00:09;;;;;;;17.95;9.25;;;17.60;99.90;;;;;;5063000;28;20074;-66
2023/09/28 07:02:35;;;;;;;16.85;8.05;;;18.00;99.90;;;;;;5080688;28;20039;-66
2023/09/28 07:05:03;;;;;;;19.92;7.65;;;18.40;99.90;;;;;;5080461;28;20089;-67
2023/09/28 07:07:30;;;;;;;11.48;6.75;;;18.90;99.90;;;;;;5080371;28;20036;-66
2023/09/28 07:09:56;;;;;;;17.02;8.20;;;19.30;99.90;;;;;;5062722;28;20149;-66
2023/09/28 07:12:25;;;;;;;12.43;7.10;;;19.70;99.90;;;;;;5062610;28;20478;-66
2023/09/28 07:14:50;;;;;;;16.08;6.80;;;20.10;99.90;;;;;;5080354;28;20031;-66
2023/09/28 07:17:16;;;;;;;15.32;6.38;;;20.50;99.90;;;;;;5080516;28;20032;-66
2023/09/28 07:19:42;;;;;;;12.77;7.28;;;20.70;99.90;;;;;;5079788;28;20025;-67
2023/09/28 07:22:08;;;;;;;10.38;6.72;;;21.00;99.90;;;;;;5062361;28;20024;-66
2023/09/28 07:24:33;;;;;;;15.77;6.93;;;21.50;99.90;;;;;;5062297;28;20452;-66
2023/09/28 07:27:00;;;;;;;12.80;6.22;;;22.10;99.50;;;;;;5080614;28;20423;-66
2023/09/28 07:29:26;;;;;;;16.65;6.60;;;22.50;98.50;;;;;;5080233;28;20032;-66
2023/09/28 07:31:51;;;;;;;13.10;6.47;;;23.00;97.40;;;;;;5080010;28;20070;-67
2023/09/28 07:34:17;;;;;;;9.82;6.43;;;23.40;96.00;;;;;;5062192;28;20043;-66
2023/09/28 07:36:42;;;;;;;14.32;6.40;;;23.80;94.70;;;;;;5079892;28;20045;-65
2023/09/28 07:39:08;;;;;;;14.75;6.15;;;24.30;93.50;;;;;;5080275;28;20074;-65
2023/09/28 07:41:34;;;;;;;17.80;6.53;;;24.50;91.90;;;;;;5062281;28;20090;-65
2023/09/28 07:43:59;;;;;;;13.30;6.28;;;24.40;92.00;;;;;;5079912;28;20108;-65
2023/09/28 07:46:25;;;;;;;13.43;5.88;;;24.70;91.30;;;;;;5080278;28;20028;-64
2023/09/28 07:48:51;;;;;;;10.65;6.38;;;25.10;90.20;;;;;;5080027;28;20027;-67
2023/09/28 07:51:17;;;;;;;12.68;6.28;;;25.20;88.90;;;;;;5062029;28;20024;-67
2023/09/28 07:53:43;;;;;;;10.93;6.57;;;25.70;87.00;;;;;;5079690;28;20452;-67
2023/09/28 07:56:09;;;;;;;14.13;6.15;;;25.90;85.40;;;;;;5080523;28;20108;-67
2023/09/28 07:58:35;;;;;;;14.20;5.50;;;26.00;83.10;;;;;;5080479;28;20025;-67
2023/09/28 08:01:01;;;;;;;13.13;5.47;;;26.30;82.20;;;;;;5079441;28;20031;-67
2023/09/28 08:03:27;;;;;;;9.10;5.35;;;26.60;81.60;;;;;;5076454;28;20084;-67
2023/09/28 08:05:54;;;;;;;14.60;5.53;;;26.90;79.20;;;;;;5076839;28;20155;-67
2023/09/28 08:08:20;;;;;;;9.40;5.43;;;27.20;77.60;;;;;;5059137;28;20028;-67
2023/09/28 08:10:45;;;;;;;11.15;6.43;;;27.20;77.10;;;;;;5058952;28;20025;-67
2023/09/28 08:13:11;;;;;;;12.02;5.65;;;27.30;76.40;;;;;;5059100;28;20064;-67
2023/09/28 08:15:37;;;;;;;11.93;5.05;;;27.30;76.10;;;;;;5076656;28;20495;-65
2023/09/28 08:18:03;;;;;;;10.13;5.13;;;27.40;74.90;;;;;;5076899;28;20033;-65
2023/09/28 08:20:29;;;;;;;8.80;5.47;;;27.50;73.80;;;;;;5076773;28;20020;-65
2023/09/28 08:22:54;;;;;;;13.32;5.18;;;27.50;73.40;;;;;;5058692;28;20396;-65
2023/09/28 08:25:20;;;;;;;8.57;5.97;;;27.70;73.20;;;;;;5077124;28;20024;-65
2023/09/28 08:27:46;;;;;;;19.73;5.50;;;27.70;72.50;;;;;;5076693;28;20465;-65
2023/09/28 08:30:12;;;;;;;10.18;4.63;;;28.00;72.20;;;;;;5077564;28;20119;-68
2023/09/28 08:32:37;;;;;;;15.55;6.35;;;28.20;71.10;;;;;;5083182;28;20088;-66
2023/09/28 08:35:04;;;;;;;9.45;5.10;;;28.50;69.80;;;;;;5085521;28;20068;-68
2023/09/28 08:37:29;;;;;;;8.55;4.70;;;28.50;70.10;;;;;;5084908;28;20033;-68
2023/09/28 08:39:57;;;;;;;17.75;5.20;;;28.50;68.70;;;;;;5065535;28;20027;-68
2023/09/28 08:42:25;;;;;;;12.95;4.90;;;28.50;68.70;;;;;;5068984;28;20047;-68
2023/09/28 08:45:00;;;;;;;13.83;4.93;;;28.60;68.40;;;;;;5087868;28;20119;-68
2023/09/28 08:47:30;;;;;;;10.13;4.88;;;28.80;67.70;;;;;;5085504;28;20415;-67
2023/09/28 08:49:56;;;;;;;12.50;4.93;;;28.80;66.90;;;;;;5084823;28;20040;-65
2023/09/28 08:52:24;;;;;;;15.18;4.63;;;29.30;66.20;;;;;;5086295;28;20021;-68
2023/09/28 08:54:50;;;;;;;9.60;3.97;;;29.80;65.30;;;;;;5086894;28;20029;-65
2023/09/28 08:57:16;;;;;;;9.27;4.13;;;30.50;63.50;;;;;;5068613;28;20297;-67
2023/09/28 08:59:43;;;;;;;17.08;5.00;;;30.80;61.90;;;;;;5086132;28;20028;-68
2023/09/28 09:02:09;;;;;;;9.93;4.30;;;31.30;60.90;;;;;;5086761;28;20089;-68
2023/09/28 09:04:35;;;;;;;8.52;4.32;;;31.50;59.30;;;;;;5087056;28;20032;-68
2023/09/28 09:07:04;;;;;;;12.23;4.82;;;31.80;58.70;;;;;;5066987;28;20032;-68
2023/09/28 09:09:34;;;;;;;12.98;4.28;;;32.10;58.10;;;;;;5086648;28;20028;-68
2023/09/28 09:12:03;;;;;;;9.00;4.03;;;32.40;56.60;;;;;;5068719;28;20084;-68
2023/09/28 09:14:29;;;;;;;6.75;4.03;;;32.20;56.30;;;;;;5086041;28;20093;-68
2023/09/28 09:16:55;;;;;;;10.93;4.07;;;32.20;56.30;;;;;;5068220;28;20024;-69
2023/09/28 09:19:21;;;;;;;6.10;4.68;;;32.30;56.00;;;;;;5086400;28;20472;-68
2023/09/28 09:21:49;;;;;;;9.90;4.47;;;32.80;55.10;;;;;;5069495;28;20043;-69
2023/09/28 09:24:18;;;;;;;;;;;33.30;54.30;;;;;;5068091;28;20025;-69
2023/09/28 09:26:46;;;;;;;11.68;4.43;;;33.60;52.70;;;;;;5068152;28;19976;-69
2023/09/28 09:29:13;;;;;;;10.73;4.68;;;33.60;52.30;;;;;;5070546;28;20092;-69
2023/09/28 09:31:43;;;;;;;13.88;4.47;;;33.80;52.00;;;;;;5088668;28;20088;-71
2023/09/28 09:34:12;;;;;;;7.65;3.97;;;34.20;51.20;;;;;;5087946;28;20468;-69
2023/09/28 09:36:39;;;;;;;11.15;4.13;;;34.70;50.80;;;;;;5084401;28;20059;-69
2023/09/28 09:39:06;;;;;;;8.70;4.38;;;34.90;49.60;;;;;;5080984;28;20024;-68
2023/09/28 09:41:45;;;;;;;6.77;4.17;;;35.20;49.40;;;;;;5062307;28;20029;-69
2023/09/28 09:44:15;;;;;;;9.05;3.83;;;35.10;48.70;;;;;;5080697;28;20025;-69
2023/09/28 09:46:41;;;;;;;11.07;4.63;;;35.40;47.90;;;;;;5080517;28;20028;-69
2023/09/28 09:49:07;;;;;;;10.90;3.80;;;35.20;48.10;;;;;;5065689;28;20031;-70
2023/09/28 09:51:35;;;;;;;7.45;3.90;;;35.30;47.60;;;;;;5083925;28;20457;-69
2023/09/28 09:54:01;;;;;;;12.00;4.25;;;35.30;48.00;;;;;;5066074;28;20349;-68
2023/09/28 09:56:28;;;;;;;11.35;4.32;;;35.30;47.20;;;;;;5065351;28;20036;-69
2023/09/28 09:58:57;;;;;;;6.80;4.05;;;35.50;46.70;;;;;;5079259;28;20064;-69
2023/09/28 10:01:22;;;;;;;7.75;4.22;;;36.00;46.20;;;;;;5060437;28;20124;-69
2023/09/28 10:03:50;;;;;;;7.32;4.10;;;36.20;45.80;;;;;;5076728;28;20052;-70
2023/09/28 10:06:21;;;;;;;8.00;4.82;;;36.30;45.30;;;;;;5057137;28;20056;-69
2023/09/28 10:08:49;;;;;;;5.72;3.83;;;36.40;45.00;;;;;;5075313;28;20032;-69
2023/09/28 10:11:34;;;;;;;5.53;3.65;;;36.20;44.60;;;;;;5056941;28;20025;-69
2023/09/28 10:14:00;;;;;;;9.30;3.80;;;36.00;44.40;;;;;;5057141;28;20079;-69
2023/09/28 10:16:26;;;;;;;4.13;3.60;;;35.90;44.60;;;;;;5074729;28;20465;-69
2023/09/28 10:18:52;;;;;;;12.35;4.40;;;35.40;44.70;;;;;;5056881;28;20491;-69
2023/09/28 10:21:19;;;;;;;11.05;4.00;;;35.50;44.90;;;;;;5074594;28;20025;-69
2023/09/28 10:23:47;;;;;;;11.07;4.05;;;35.70;44.60;;;;;;5074642;28;20024;-69
2023/09/28 10:26:14;;;;;;;6.90;3.78;;;35.90;44.90;;;;;;5074289;28;20124;-69
2023/09/28 10:29:02;;;;;;;7.22;4.13;;;35.50;44.80;;;;;;5074265;28;20062;-69
2023/09/28 10:31:32;;;;;;;10.25;4.00;;;35.70;44.70;;;;;;5040693;28;20487;-69
2023/09/28 10:34:04;;;;;;;7.15;3.50;;;36.00;44.10;;;;;;5057035;28;20077;-68
2023/09/28 10:36:33;;;;;;;8.52;3.97;;;36.50;43.40;;;;;;5074893;28;20048;-68
2023/09/28 10:39:14;;;;;;;5.60;3.33;;;36.90;43.10;;;;;;5075813;28;20031;-69
2023/09/28 10:42:10;;;;;;;7.85;3.72;;;36.90;42.60;;;;;;5081387;28;20016;-72
2023/09/28 10:44:52;;;;;;;10.48;3.78;;;37.20;42.20;;;;;;5072700;28;20033;-69
2023/09/28 10:47:19;;;;;;;6.72;3.70;;;36.50;42.10;;;;;;5078322;28;20039;-70
2023/09/28 10:49:45;;;;;;;6.53;3.55;;;36.00;42.70;;;;;;5061025;28;20142;-69
2023/09/28 10:52:11;;;;;;;9.27;3.95;;;36.50;43.00;;;;;;5080335;28;20033;-69
2023/09/28 10:54:41;;;;;;;7.38;4.07;;;36.90;42.50;;;;;;5080080;28;20404;-69
2023/09/28 10:57:07;;;;;;;7.88;4.22;;;37.30;41.80;;;;;;5075627;28;20035;-69
2023/09/28 10:59:36;;;;;;;10.35;3.80;;;37.50;40.60;;;;;;5073944;28;20103;-68
2023/09/28 11:02:02;;;;;;;8.95;3.63;;;37.90;40.70;;;;;;5073753;28;20056;-69
2023/09/28 11:04:29;;;;;;;9.38;4.70;;;38.10;40.30;;;;;;5055667;28;20032;-69
2023/09/28 11:06:55;;;;;;;6.60;3.77;;;38.30;40.20;;;;;;5073938;28;20043;-69
2023/09/28 11:09:21;;;;;;;8.63;3.85;;;38.60;39.20;;;;;;5055808;28;20388;-69
2023/09/28 11:11:49;;;;;;;11.88;3.60;;;38.30;39.40;;;;;;5055662;28;20025;-69
2023/09/28 11:14:14;;;;;;;;;;;38.20;39.50;;;;;;5073974;28;20116;-69
2023/09/28 11:16:41;;;;;;;7.80;3.80;;;38.30;39.30;;;;;;5073689;28;19954;-69
2023/09/28 11:19:09;;;;;;;5.60;3.83;;;37.70;39.20;;;;;;5074602;28;20028;-69
2023/09/28 11:21:35;;;;;;;10.57;3.30;;;37.90;39.20;;;;;;5055371;28;20025;-69
2023/09/28 11:24:04;;;;;;;10.27;3.30;;;38.10;39.20;;;;;;5073296;28;20035;-69
2023/09/28 11:26:31;;;;;;;6.63;3.60;;;38.40;38.80;;;;;;5055270;28;20482;-69
2023/09/28 11:28:58;;;;;;;8.55;3.10;;;38.60;38.40;;;;;;5073721;28;20024;-69
2023/09/28 11:31:25;;;;;;;;;;;38.90;36.70;;;;;;5074013;28;20029;-69
2023/09/28 11:33:51;;;;;;;6.03;3.10;;;38.70;36.70;;;;;;5073538;28;19904;-69
2023/09/28 11:36:21;;;;;;;8.98;2.90;;;38.60;36.50;;;;;;5080291;28;20395;-69
2023/09/28 11:38:52;;;;;;;5.18;2.78;;;38.70;37.00;;;;;;5097448;28;20029;-69
2023/09/28 11:41:21;;;;;;;9.35;3.45;;;39.20;36.50;;;;;;5097405;28;20456;-69
2023/09/28 11:43:47;;;;;;;4.63;2.55;;;39.00;36.70;;;;;;5096106;28;20040;-69
2023/09/28 11:46:22;;;;;;;6.55;3.03;;;38.90;35.40;;;;;;5097221;28;20522;-68
2023/09/28 11:49:20;;;;;;;5.22;3.08;;;38.60;35.00;;;;;;5097673;28;20081;-69
2023/09/28 11:51:46;;;;;;;7.22;3.58;;;37.50;36.10;;;;;;5097388;28;20020;-68
2023/09/28 11:54:13;;;;;;;4.40;2.97;;;37.80;36.30;;;;;;5096046;28;20059;-67
2023/09/28 11:56:43;;;;;;;6.07;2.83;;;37.60;36.30;;;;;;5096906;28;20032;-59
2023/09/28 11:59:14;;;;;;;3.58;2.80;;;37.10;39.10;;;;;;5096834;28;20048;-59
2023/09/28 12:01:39;;;;;;;10.07;3.17;;;36.00;36.80;;;;;;5095779;28;20349;-59
2023/09/28 12:04:06;;;;;;;5.82;2.30;;;35.70;41.90;;;;;;5097340;28;20030;-59
2023/09/28 12:06:32;;;;;;;12.15;3.08;;;35.50;44.50;;;;;;5096999;28;20075;-59
2023/09/28 12:08:58;;;;;;;7.45;2.95;;;35.10;39.90;;;;;;5096772;28;20032;-59
2023/09/28 12:11:24;;;;;;;14.02;3.42;;;35.10;39.70;;;;;;5096407;28;20492;-59
2023/09/28 12:13:49;;;;;;;8.20;3.15;;;34.80;39.20;;;;;;5095742;28;20020;-58
2023/09/28 12:16:15;;;;;;;4.53;2.63;;;34.80;40.30;;;;;;5095250;28;20085;-60
2023/09/28 12:18:41;;;;;;;5.43;3.10;;;34.60;40.60;;;;;;5096556;28;20023;-59
2023/09/28 12:21:07;;;;;;;6.35;2.78;;;34.80;39.20;;;;;;5096152;28;20035;-59
2023/09/28 12:23:32;;;;;;;4.60;2.95;;;35.10;42.10;;;;;;5096140;28;20356;-59
2023/09/28 12:26:01;;;;;;;11.45;3.45;;;35.20;39.30;;;;;;5096269;28;20039;-59
2023/09/28 12:28:27;;;;;;;5.97;3.05;;;35.50;38.30;;;;;;5095412;28;20031;-60
2023/09/28 12:30:53;;;;;;;9.70;3.03;;;35.40;38.80;;;;;;5096317;28;20020;-57
2023/09/28 12:33:19;;;;;;;10.73;3.25;;;35.00;39.60;;;;;;5096628;28;20034;-59
2023/09/28 12:35:45;;;;;;;9.73;3.72;;;34.40;39.40;;;;;;5086253;28;20052;-58
2023/09/28 12:38:10;;;;;;;8.43;3.42;;;34.10;40.10;;;;;;5076455;28;20526;-66
2023/09/28 12:40:38;;;;;;;9.43;3.10;;;34.20;40.00;;;;;;5075856;28;20048;-66